Time;durP1;ratioP1;P1;durP2;ratioP2;P2;SDS_P1;SDS_P2;PMS_P1;PMS_P2;Temp;Humidity;BMP_temperature;BMP_pressure;BME280_temperature;BME280_humidity;BME280_pressure;Samples;Min_cycle;Max_cycle;Signal;HPM_P1;HPM_P2
2020/12/26 00:01:20;;;;;;;8.73;6.10;;;;;;;-0.04;92.46;97419.34;5120894;28;20705;-68
2020/12/26 00:03:47;;;;;;;7.73;5.47;;;;;;;0.04;91.72;97424.59;5128218;28;20218;-68
2020/12/26 00:06:14;;;;;;;9.43;6.17;;;;;;;0.00;92.15;97415.53;5119565;28;20202;-68
2020/12/26 00:08:40;;;;;;;7.23;5.37;;;;;;;0.03;92.31;97411.84;5112948;28;20196;-69
2020/12/26 00:11:09;;;;;;;7.43;5.53;;;;;;;-0.02;92.51;97423.41;5111564;28;20901;-69
2020/12/26 00:13:35;;;;;;;8.03;5.57;;;;;;;-0.10;93.21;97419.91;5127135;28;20239;-69
2020/12/26 00:16:09;;;;;;;9.13;5.33;;;;;;;-0.01;92.63;97419.06;5123265;28;20565;-68
2020/12/26 00:18:35;;;;;;;6.20;5.17;;;;;;;-0.01;92.83;97419.06;5125269;28;20282;-68
2020/12/26 00:21:05;;;;;;;8.47;5.00;;;;;;;0.02;92.63;97416.19;5121497;28;20270;-69
2020/12/26 00:23:31;;;;;;;6.93;5.13;;;;;;;0.10;92.22;97412.91;5116954;28;20679;-69
2020/12/26 00:25:56;;;;;;;8.00;4.73;;;;;;;0.04;92.14;97405.75;5122729;28;20176;-69
2020/12/26 00:28:22;;;;;;;7.43;5.70;;;;;;;0.13;91.42;97405.66;5126560;28;20164;-69
2020/12/26 00:30:49;;;;;;;9.07;5.53;;;;;;;0.15;91.58;97403.78;5119437;28;20247;-68
2020/12/26 00:33:14;;;;;;;11.00;6.17;;;;;;;0.02;91.84;97403.31;5123104;28;20235;-69
2020/12/26 00:35:40;;;;;;;8.33;5.90;;;;;;;0.01;91.79;97404.25;5097165;28;20260;-69
2020/12/26 00:38:05;;;;;;;11.70;6.47;;;;;;;-0.27;92.48;97403.47;5117412;28;20191;-68
2020/12/26 00:40:31;;;;;;;9.80;6.50;;;;;;;-0.26;92.50;97402.53;5121390;28;20176;-69
2020/12/26 00:42:56;;;;;;;8.90;6.90;;;;;;;-0.43;92.62;97400.72;5124915;28;20209;-69
2020/12/26 00:45:22;;;;;;;9.60;6.60;;;;;;;-0.42;92.74;97408.28;5115091;28;20634;-69
2020/12/26 00:47:47;;;;;;;10.03;7.10;;;;;;;-0.43;92.84;97411.00;5122429;28;20195;-69
2020/12/26 00:50:14;;;;;;;8.83;6.83;;;;;;;-0.40;92.26;97415.88;5124609;28;20179;-69
2020/12/26 00:52:40;;;;;;;9.77;6.77;;;;;;;-0.49;92.74;97414.16;5130745;28;20211;-68
2020/12/26 00:55:06;;;;;;;10.73;7.30;;;;;;;-0.56;93.05;97420.84;5116429;28;20186;-68
2020/12/26 00:57:33;;;;;;;7.40;6.43;;;;;;;-0.51;92.69;97419.47;5128230;27;20269;-69
2020/12/26 01:00:00;;;;;;;8.03;6.47;;;;;;;-0.51;92.70;97431.50;5120742;27;20183;-68
2020/12/26 01:02:25;;;;;;;8.10;6.77;;;;;;;-0.51;92.56;97428.94;5113042;27;20239;-68
2020/12/26 01:04:52;;;;;;;10.60;7.60;;;;;;;-0.66;92.73;97432.91;5101308;28;20308;-68
2020/12/26 01:07:18;;;;;;;7.90;7.07;;;;;;;-0.71;93.20;97437.66;5110556;28;20549;-68
2020/12/26 01:09:43;;;;;;;10.20;7.07;;;;;;;-0.59;93.04;97439.13;5098669;28;20210;-68
2020/12/26 01:12:09;;;;;;;10.13;6.87;;;;;;;-0.61;93.09;97439.25;5106818;28;20199;-68
2020/12/26 01:14:35;;;;;;;10.93;7.73;;;;;;;-0.63;93.56;97440.34;5106089;28;20648;-68
2020/12/26 01:17:00;;;;;;;9.63;6.30;;;;;;;-0.68;94.03;97439.97;5099834;28;20181;-68
2020/12/26 01:19:27;;;;;;;11.87;7.10;;;;;;;-0.60;94.11;97442.63;5111646;28;20168;-68
2020/12/26 01:21:53;;;;;;;8.93;6.33;;;;;;;-0.65;93.91;97439.69;5097507;28;20207;-68
2020/12/26 01:24:20;;;;;;;10.70;7.23;;;;;;;-0.60;93.95;97450.34;5103963;28;20225;-68
2020/12/26 01:26:49;;;;;;;9.07;7.37;;;;;;;-0.63;93.77;97456.63;5103003;28;20188;-68
2020/12/26 01:29:15;;;;;;;9.27;7.00;;;;;;;-0.71;93.83;97451.34;5110449;28;20203;-68
2020/12/26 01:31:41;;;;;;;8.77;6.47;;;;;;;-0.73;93.63;97455.84;5097690;28;20184;-68
2020/12/26 01:34:07;;;;;;;7.17;6.47;;;;;;;-0.74;94.04;97453.41;5108127;28;20866;-68
2020/12/26 01:36:33;;;;;;;10.53;6.70;;;;;;;-0.78;93.96;97457.19;5104469;28;20180;-68
2020/12/26 01:38:58;;;;;;;10.63;7.20;;;;;;;-0.77;93.98;97453.66;5100664;28;20185;-68
2020/12/26 01:41:24;;;;;;;12.87;7.40;;;;;;;-0.74;93.99;97456.78;5110850;28;20184;-68
2020/12/26 01:44:07;;;;;;;9.80;7.20;;;;;;;-0.80;94.56;97453.94;5110300;28;20212;-68
2020/12/26 01:46:33;;;;;;;12.83;8.00;;;;;;;-0.87;95.26;97462.22;5103205;28;20711;-68
2020/12/26 01:49:00;;;;;;;11.00;7.93;;;;;;;-0.89;95.49;97464.09;5100653;28;20181;-68
2020/12/26 01:51:29;;;;;;;12.77;7.10;;;;;;;-0.97;95.69;97476.06;5109417;28;20226;-68
2020/12/26 01:53:56;;;;;;;13.33;7.37;;;;;;;-0.95;95.89;97476.75;5097298;28;20200;-68
2020/12/26 01:56:22;;;;;;;11.37;7.20;;;;;;;-0.92;96.08;97484.16;5106806;28;20259;-68
2020/12/26 01:58:52;;;;;;;10.53;7.10;;;;;;;-0.92;96.45;97487.56;5102658;28;20544;-68
2020/12/26 02:01:29;;;;;;;11.77;7.87;;;;;;;-0.92;96.62;97495.28;5102458;28;20231;-68
2020/12/26 02:03:55;;;;;;;14.90;8.03;;;;;;;-0.79;96.76;97500.13;5100950;27;20193;-68
2020/12/26 02:06:20;;;;;;;11.47;7.57;;;;;;;-0.63;96.20;97494.41;5124620;27;20262;-68
2020/12/26 02:08:46;;;;;;;14.67;8.57;;;;;;;-0.53;96.50;97493.44;5119660;27;20579;-68
2020/12/26 02:11:11;;;;;;;11.40;8.37;;;;;;;-0.47;96.01;97494.63;5124745;27;20164;-69
2020/12/26 02:13:37;;;;;;;11.93;8.33;;;;;;;-0.45;95.58;97496.09;5125790;27;20212;-68
2020/12/26 02:16:13;;;;;;;13.60;8.53;;;;;;;-0.41;95.63;97499.22;5127094;27;20203;-69
2020/12/26 02:18:39;;;;;;;11.07;7.30;;;;;;;-0.30;95.19;97490.50;5127287;27;20206;-68
2020/12/26 02:21:05;;;;;;;11.33;8.13;;;;;;;-0.17;94.78;97496.16;5096969;27;20190;-68
2020/12/26 02:23:33;;;;;;;12.47;7.90;;;;;;;-0.11;94.46;97504.13;5125377;27;20199;-70
2020/12/26 02:25:58;;;;;;;11.67;7.80;;;;;;;0.00;94.66;97495.41;5123633;27;20218;-68
2020/12/26 02:28:24;;;;;;;13.27;8.20;;;;;;;-0.01;94.13;97489.44;5126334;27;20212;-68
2020/12/26 02:30:56;;;;;;;11.80;7.43;;;;;;;-0.01;94.24;97483.47;5123220;27;20210;-68
2020/12/26 02:33:21;;;;;;;11.60;7.20;;;;;;;-0.08;94.00;97497.88;5121684;27;20207;-68
2020/12/26 02:35:47;;;;;;;11.77;7.90;;;;;;;-0.13;94.15;97494.91;5095534;27;20537;-69
2020/12/26 02:38:17;;;;;;;12.20;7.90;;;;;;;-0.09;94.06;97486.75;5124547;27;21003;-68
2020/12/26 02:40:46;;;;;;;11.00;8.00;;;;;;;-0.25;94.39;97491.72;5116814;27;20172;-68
2020/12/26 02:43:18;;;;;;;12.37;7.97;;;;;;;-0.15;94.39;97496.81;5124303;27;20878;-68
2020/12/26 02:45:44;;;;;;;11.10;7.87;;;;;;;-0.34;95.08;97499.47;5124658;27;20172;-68
2020/12/26 02:48:09;;;;;;;13.27;8.10;;;;;;;-0.22;94.77;97486.25;5122238;27;20194;-68
2020/12/26 02:50:34;;;;;;;15.47;8.63;;;;;;;-0.22;94.76;97494.00;5118160;27;20221;-68
2020/12/26 02:53:00;;;;;;;14.43;8.03;;;;;;;-0.22;94.71;97488.03;5115199;27;20200;-68
2020/12/26 02:55:25;;;;;;;13.87;7.90;;;;;;;-0.37;95.24;97497.97;5128483;27;20549;-68
2020/12/26 02:57:51;;;;;;;14.60;8.53;;;;;;;-0.35;95.64;97495.28;5094024;28;20175;-68
2020/12/26 03:00:17;;;;;;;13.03;7.90;;;;;;;-0.39;95.64;97497.31;5126007;27;20211;-69
2020/12/26 03:02:42;;;;;;;14.53;8.77;;;;;;;-0.31;95.61;97502.56;5129812;27;20605;-67
2020/12/26 03:05:07;;;;;;;13.97;8.03;;;;;;;-0.32;95.92;97507.84;5115516;27;20179;-68
2020/12/26 03:07:33;;;;;;;16.63;8.93;;;;;;;-0.32;96.12;97513.81;5121353;27;20652;-67
2020/12/26 03:09:58;;;;;;;13.13;8.97;;;;;;;-0.42;96.88;97513.88;5122339;27;20233;-67
2020/12/26 03:12:24;;;;;;;18.80;9.33;;;;;;;-0.34;96.52;97505.44;5126705;27;20207;-67
2020/12/26 03:14:49;;;;;;;14.63;8.90;;;;;;;-0.26;96.23;97500.38;5116099;27;20176;-67
2020/12/26 03:17:15;;;;;;;16.90;8.93;;;;;;;-0.25;96.26;97506.34;5128239;27;20176;-67
2020/12/26 03:19:40;;;;;;;16.90;10.00;;;;;;;-0.23;96.13;97504.47;5119584;27;20655;-67
2020/12/26 03:22:05;;;;;;;15.53;8.83;;;;;;;-0.29;96.50;97502.44;5121151;27;20245;-67
2020/12/26 03:24:31;;;;;;;14.40;9.33;;;;;;;-0.23;96.73;97512.19;5113553;28;20680;-67
2020/12/26 03:26:56;;;;;;;17.37;9.00;;;;;;;-0.13;96.05;97506.03;5129148;27;20204;-67
2020/12/26 03:29:22;;;;;;;15.67;9.30;;;;;;;-0.15;96.16;97512.28;5116823;27;20175;-68
2020/12/26 03:31:47;;;;;;;14.83;8.57;;;;;;;-0.15;95.99;97513.09;5125177;27;20270;-67
2020/12/26 03:34:13;;;;;;;18.47;9.10;;;;;;;-0.02;95.29;97517.91;5122698;27;20171;-68
2020/12/26 03:36:38;;;;;;;13.83;8.73;;;;;;;0.00;95.39;97508.28;5117510;27;20171;-68
2020/12/26 03:39:03;;;;;;;13.97;8.50;;;;;;;0.13;94.80;97518.25;5128605;27;20656;-68
2020/12/26 03:41:29;;;;;;;15.33;8.80;;;;;;;0.12;94.33;97514.03;5129014;27;20167;-68
2020/12/26 03:43:55;;;;;;;11.17;7.13;;;;;;;0.18;93.87;97516.06;5122425;27;20176;-67
2020/12/26 03:46:21;;;;;;;12.27;8.20;;;;;;;0.18;93.13;97516.06;5116827;27;20661;-68
2020/12/26 03:48:46;;;;;;;16.43;8.13;;;;;;;0.14;93.38;97520.69;5119456;27;20175;-67
2020/12/26 03:51:12;;;;;;;12.93;7.07;;;;;;;0.08;92.67;97520.44;5125232;27;20180;-67
2020/12/26 03:53:37;;;;;;;11.63;6.83;;;;;;;0.15;92.54;97526.66;5120307;27;20212;-67
2020/12/26 03:56:03;;;;;;;13.20;6.60;;;;;;;-0.02;92.56;97530.81;5125359;27;20227;-67
2020/12/26 03:58:28;;;;;;;14.60;7.83;;;;;;;0.07;92.32;97535.09;5115827;27;20262;-68
2020/12/26 04:00:56;;;;;;;11.03;7.33;;;;;;;-0.06;93.16;97529.47;5123134;28;20267;-67
2020/12/26 04:03:21;;;;;;;10.87;7.20;;;;;;;-0.13;93.46;97536.13;5091609;28;20302;-68
2020/12/26 04:05:47;;;;;;;12.57;7.73;;;;;;;0.01;93.51;97527.94;5091607;28;20195;-67
2020/12/26 04:08:12;;;;;;;13.30;6.57;;;;;;;0.03;92.91;97532.94;5090685;28;20168;-67
2020/12/26 04:10:38;;;;;;;13.97;7.37;;;;;;;0.05;92.10;97533.63;5091702;28;20173;-68
2020/12/26 04:13:03;;;;;;;15.50;7.37;;;;;;;0.13;92.73;97521.63;5090792;28;20671;-69
2020/12/26 04:15:29;;;;;;;12.73;7.83;;;;;;;0.18;91.93;97516.88;5091996;28;20173;-67
2020/12/26 04:17:54;;;;;;;12.60;6.90;;;;;;;0.23;92.19;97526.75;5091187;28;20582;-68
2020/12/26 04:20:20;;;;;;;12.47;6.70;;;;;;;0.26;92.34;97526.47;5089856;28;20182;-67
2020/12/26 04:22:45;;;;;;;11.53;7.53;;;;;;;0.25;91.64;97532.56;5090866;28;20204;-68
2020/12/26 04:25:10;;;;;;;11.53;7.43;;;;;;;0.25;91.98;97528.22;5091058;28;20172;-68
2020/12/26 04:27:36;;;;;;;12.03;7.57;;;;;;;0.39;91.02;97530.31;5091816;28;20579;-67
2020/12/26 04:30:04;;;;;;;15.33;8.67;;;;;;;0.30;91.45;97535.53;5092341;28;20175;-67
2020/12/26 04:32:30;;;;;;;12.70;7.60;;;;;;;0.25;91.51;97538.53;5094992;28;20631;-67
2020/12/26 04:34:57;;;;;;;12.90;7.33;;;;;;;0.23;91.64;97532.72;5094957;28;20251;-67
2020/12/26 04:37:22;;;;;;;12.17;7.53;;;;;;;0.32;91.21;97531.88;5095921;28;20707;-68
2020/12/26 04:39:48;;;;;;;13.10;6.67;;;;;;;0.27;91.50;97528.91;5095208;28;20181;-68
2020/12/26 04:42:14;;;;;;;13.67;7.87;;;;;;;0.43;91.48;97530.84;5094637;28;20895;-67
2020/12/26 04:44:40;;;;;;;12.17;8.30;;;;;;;0.44;91.14;97527.31;5095179;28;20256;-68
2020/12/26 04:47:13;;;;;;;16.37;8.13;;;;;;;0.46;91.33;97545.22;5094339;28;20172;-67
2020/12/26 04:49:39;;;;;;;13.50;7.67;;;;;;;0.41;91.73;97543.88;5095157;28;20185;-67
2020/12/26 04:52:09;;;;;;;14.37;7.87;;;;;;;0.33;91.97;97541.22;5094248;28;20243;-67
2020/12/26 04:54:43;;;;;;;12.67;7.67;;;;;;;0.37;92.03;97537.41;5094912;28;20181;-67
2020/12/26 04:57:09;;;;;;;12.20;7.70;;;;;;;0.31;91.80;97537.16;5078528;28;20183;-67
2020/12/26 04:59:35;;;;;;;11.90;7.70;;;;;;;0.30;92.13;97535.53;5094901;28;20638;-67
2020/12/26 05:02:01;;;;;;;13.87;8.20;;;;;;;0.34;91.85;97536.84;5115112;27;20245;-68
2020/12/26 05:04:27;;;;;;;13.60;7.57;;;;;;;0.33;91.81;97543.81;5121402;27;20180;-67
2020/12/26 05:06:53;;;;;;;17.97;8.40;;;;;;;0.42;91.60;97547.28;5133180;27;20181;-67
2020/12/26 05:09:21;;;;;;;12.27;7.57;;;;;;;0.38;91.20;97544.19;5121535;27;20168;-67
2020/12/26 05:12:00;;;;;;;13.27;7.77;;;;;;;0.50;91.07;97549.97;5123477;27;20242;-68
2020/12/26 05:14:27;;;;;;;14.50;7.67;;;;;;;0.40;90.84;97544.00;5118975;27;20198;-67
2020/12/26 05:17:00;;;;;;;13.53;8.33;;;;;;;0.50;90.40;97549.97;5122126;27;20636;-67
2020/12/26 05:19:26;;;;;;;13.33;7.90;;;;;;;0.43;90.24;97551.47;5130720;27;20167;-68
2020/12/26 05:21:53;;;;;;;13.00;7.77;;;;;;;0.47;89.79;97550.22;5100191;28;20202;-67
2020/12/26 05:24:19;;;;;;;11.97;7.40;;;;;;;0.48;90.14;97557.00;5126211;27;20172;-68
2020/12/26 05:26:47;;;;;;;12.23;7.77;;;;;;;0.42;90.65;97547.28;5096443;28;20170;-68
2020/12/26 05:29:15;;;;;;;13.67;8.10;;;;;;;0.48;90.48;97551.03;5116481;27;20855;-68
2020/12/26 05:31:49;;;;;;;13.13;8.57;;;;;;;0.55;90.11;97557.25;5129820;27;20270;-67
2020/12/26 05:34:15;;;;;;;13.93;7.70;;;;;;;0.52;90.39;97548.03;5126308;27;20179;-68
2020/12/26 05:36:42;;;;;;;11.60;8.07;;;;;;;0.59;89.91;97548.25;5123309;27;20653;-68
2020/12/26 05:39:08;;;;;;;17.03;9.07;;;;;;;0.55;90.12;97545.16;5124543;27;20228;-68
2020/12/26 05:41:38;;;;;;;15.00;8.83;;;;;;;0.78;88.81;97548.16;5124084;27;20513;-68
2020/12/26 05:44:04;;;;;;;14.90;9.40;;;;;;;0.74;89.18;97549.38;5126882;27;20223;-68
2020/12/26 05:46:29;;;;;;;16.93;9.80;;;;;;;0.74;89.52;97542.44;5122911;27;20176;-68
2020/12/26 05:48:54;;;;;;;19.67;9.53;;;;;;;0.60;89.84;97545.53;5120781;27;20263;-67
2020/12/26 05:51:25;;;;;;;22.87;10.13;;;;;;;0.43;91.52;97546.31;5131014;27;20191;-68
2020/12/26 05:53:54;;;;;;;17.30;9.73;;;;;;;0.55;91.94;97549.50;5095760;28;20226;-68
2020/12/26 05:56:20;;;;;;;15.00;9.53;;;;;;;0.40;92.28;97547.41;5119545;27;20214;-68
2020/12/26 05:58:45;;;;;;;16.87;9.80;;;;;;;0.50;92.17;97547.38;5119229;27;20207;-68
2020/12/26 06:01:10;;;;;;;14.50;9.17;;;;;;;0.41;91.77;97543.88;5112813;27;20310;-67
2020/12/26 06:03:36;;;;;;;20.30;9.90;;;;;;;0.41;92.05;97545.66;5123331;27;20203;-68
2020/12/26 06:06:06;;;;;;;12.90;8.83;;;;;;;0.32;92.30;97542.19;5125135;27;20163;-67
2020/12/26 06:08:32;;;;;;;16.50;9.57;;;;;;;0.28;92.59;97545.97;5122478;27;20180;-69
2020/12/26 06:11:02;;;;;;;16.23;9.27;;;;;;;0.21;93.13;97552.69;5125235;27;20174;-67
2020/12/26 06:13:30;;;;;;;16.83;9.87;;;;;;;0.12;93.75;97553.50;5125102;27;20199;-67
2020/12/26 06:16:08;;;;;;;17.00;10.10;;;;;;;0.06;94.37;97555.88;5122049;27;20594;-67
2020/12/26 06:18:41;;;;;;;16.67;9.77;;;;;;;0.10;94.14;97557.22;5130611;27;20179;-68
2020/12/26 06:21:08;;;;;;;18.57;10.00;;;;;;;0.10;94.41;97559.78;5118867;27;20180;-68
2020/12/26 06:23:38;;;;;;;14.60;9.60;;;;;;;0.10;94.08;97558.03;5124517;27;20745;-68
2020/12/26 06:26:05;;;;;;;16.47;9.60;;;;;;;0.02;94.84;97565.63;5121358;27;20668;-67
2020/12/26 06:28:35;;;;;;;17.47;9.70;;;;;;;0.24;94.57;97564.44;5123662;27;20171;-69
2020/12/26 06:31:05;;;;;;;15.30;9.83;;;;;;;0.22;94.30;97561.22;5093394;28;20187;-67
2020/12/26 06:33:40;;;;;;;16.30;9.60;;;;;;;0.28;93.82;97568.41;5113282;27;20241;-67
2020/12/26 06:36:07;;;;;;;16.23;9.53;;;;;;;0.24;94.38;97560.13;5110637;27;20258;-67
2020/12/26 06:38:33;;;;;;;13.43;8.87;;;;;;;0.06;94.81;97559.22;5112689;27;20203;-67
2020/12/26 06:41:28;;;;;;;12.90;8.47;;;;;;;-0.03;94.38;97557.50;5109265;27;20198;-67
2020/12/26 06:43:56;;;;;;;18.90;9.07;;;;;;;-0.15;94.69;97567.19;5113942;27;20211;-68
2020/12/26 06:46:22;;;;;;;13.10;8.47;;;;;;;-0.23;94.93;97572.22;5132282;27;20178;-67
2020/12/26 06:48:55;;;;;;;13.03;8.67;;;;;;;-0.30;94.86;97571.16;5131441;27;20179;-67
2020/12/26 06:51:43;;;;;;;25.37;10.07;;;;;;;-0.39;95.10;97584.06;5117395;27;20180;-68
2020/12/26 06:54:09;;;;;;;15.67;9.10;;;;;;;-0.44;95.14;97581.88;5112172;27;20207;-68
2020/12/26 06:56:35;;;;;;;15.90;9.13;;;;;;;-0.43;95.56;97586.91;5116315;27;20192;-67
2020/12/26 06:59:11;;;;;;;24.63;10.37;;;;;;;-0.46;95.42;97583.81;5123861;27;20700;-68
2020/12/26 07:01:41;;;;;;;18.27;9.37;;;;;;;-0.44;95.88;97587.84;5119142;27;20299;-68
2020/12/26 07:04:10;;;;;;;16.17;10.10;;;;;;;-0.56;96.03;97580.44;5122541;27;20185;-67
2020/12/26 07:06:56;;;;;;;16.23;9.70;;;;;;;-0.50;96.34;97578.09;5116191;27;20168;-68
2020/12/26 07:09:36;;;;;;;14.80;9.33;;;;;;;-0.48;96.25;97581.34;5115662;27;20199;-68
2020/12/26 07:12:04;;;;;;;20.43;9.83;;;;;;;-0.65;96.25;97582.06;5124965;27;20198;-67
2020/12/26 07:14:30;;;;;;;19.07;9.47;;;;;;;-0.62;96.99;97589.50;5116277;27;20306;-68
2020/12/26 07:17:00;;;;;;;17.47;9.60;;;;;;;-0.67;97.91;97596.03;5113036;27;20320;-65
2020/12/26 07:19:36;;;;;;;16.77;9.40;;;;;;;-0.69;97.58;97597.91;5120654;27;20172;-65
2020/12/26 07:22:02;;;;;;;14.23;9.50;;;;;;;-0.67;97.51;97591.66;5119517;27;20214;-65
2020/12/26 07:24:32;;;;;;;13.90;9.67;;;;;;;-0.59;97.09;97594.38;5128826;27;20175;-67
2020/12/26 07:27:12;;;;;;;12.67;8.63;;;;;;;-0.56;96.94;97596.66;5113567;27;20722;-66
2020/12/26 07:29:47;;;;;;;13.40;8.60;;;;;;;-0.42;96.15;97593.69;5121945;27;20167;-64
2020/12/26 07:32:35;;;;;;;17.47;9.07;;;;;;;-0.44;96.55;97597.31;5117264;27;20719;-64
2020/12/26 07:35:00;;;;;;;16.73;9.23;;;;;;;-0.37;95.76;97595.03;5099945;27;20228;-65
2020/12/26 07:37:25;;;;;;;15.17;10.03;;;;;;;-0.35;95.65;97595.72;5123804;27;20217;-62
2020/12/26 07:39:51;;;;;;;14.47;9.70;;;;;;;-0.36;95.41;97596.66;5131888;27;20182;-63
2020/12/26 07:42:16;;;;;;;15.00;9.90;;;;;;;-0.45;95.64;97593.94;5116689;27;20207;-63
2020/12/26 07:44:42;;;;;;;14.70;9.70;;;;;;;-0.42;96.34;97587.72;5128919;27;20650;-62
2020/12/26 07:47:09;;;;;;;14.00;9.33;;;;;;;-0.20;95.07;97596.88;5119479;27;20203;-66
2020/12/26 07:49:34;;;;;;;15.30;9.50;;;;;;;-0.22;94.61;97594.44;5121278;27;20187;-64
2020/12/26 07:52:05;;;;;;;12.70;9.13;;;;;;;-0.12;94.47;97592.69;5119704;27;20223;-66
2020/12/26 07:54:31;;;;;;;18.30;9.17;;;;;;;0.00;93.78;97590.75;5128910;27;20191;-65
2020/12/26 07:57:03;;;;;;;17.47;8.60;;;;;;;0.05;93.70;97596.28;5107216;28;20317;-65
2020/12/26 07:59:28;;;;;;;15.43;8.50;;;;;;;0.13;92.80;97586.06;5123259;27;20191;-66
2020/12/26 08:01:56;;;;;;;13.53;8.40;;;;;;;0.26;92.26;97576.25;5113740;28;20237;-65
2020/12/26 08:04:22;;;;;;;15.27;8.57;;;;;;;0.32;91.62;97573.13;5114619;28;20180;-65
2020/12/26 08:06:50;;;;;;;13.90;8.93;;;;;;;0.49;91.10;97573.31;5128584;28;20175;-64
2020/12/26 08:09:17;;;;;;;13.60;8.50;;;;;;;0.57;90.61;97569.03;5116739;28;20221;-64
2020/12/26 08:11:43;;;;;;;14.30;8.17;;;;;;;0.56;90.63;97566.63;5121925;28;20202;-65
2020/12/26 08:14:10;;;;;;;15.40;8.67;;;;;;;0.64;90.19;97570.09;5117948;28;20214;-65
2020/12/26 08:16:36;;;;;;;13.27;7.80;;;;;;;0.58;89.85;97569.84;5126931;28;20171;-65
2020/12/26 08:19:04;;;;;;;11.93;8.37;;;;;;;0.62;89.42;97571.97;5120072;28;20250;-65
2020/12/26 08:21:31;;;;;;;15.07;8.93;;;;;;;0.77;88.21;97580.88;5124146;28;20184;-64
2020/12/26 08:23:58;;;;;;;11.73;8.23;;;;;;;0.65;89.49;97576.06;5124206;28;20167;-62
2020/12/26 08:26:26;;;;;;;11.87;8.60;;;;;;;0.66;89.26;97575.09;5130839;28;20649;-66
2020/12/26 08:28:57;;;;;;;11.10;8.50;;;;;;;0.66;89.70;97562.19;5114597;28;20176;-65
2020/12/26 08:31:23;;;;;;;12.33;8.33;;;;;;;0.81;88.67;97571.06;5119825;28;20248;-66
2020/12/26 08:34:02;;;;;;;12.53;8.73;;;;;;;0.75;89.07;97566.47;5122894;28;20557;-62
2020/12/26 08:36:32;;;;;;;12.03;8.70;;;;;;;0.82;88.27;97563.19;5115817;28;20681;-65
2020/12/26 08:39:07;;;;;;;12.17;8.40;;;;;;;0.76;88.23;97562.94;5094345;28;20233;-65
2020/12/26 08:41:38;;;;;;;11.93;7.90;;;;;;;0.72;89.15;97554.69;5120601;28;20197;-65
2020/12/26 08:44:13;;;;;;;11.90;8.57;;;;;;;0.84;87.79;97560.44;5118209;28;20204;-65
2020/12/26 08:46:46;;;;;;;14.73;8.83;;;;;;;0.88;87.61;97564.38;5111674;28;20641;-65
2020/12/26 08:49:13;;;;;;;12.03;8.67;;;;;;;0.87;88.20;97567.09;5117129;28;20536;-63
2020/12/26 08:51:43;;;;;;;14.17;8.90;;;;;;;0.95;87.44;97569.75;5122257;28;20253;-65
2020/12/26 08:54:35;;;;;;;12.90;8.87;;;;;;;0.84;88.68;97565.59;5112470;28;20218;-64
2020/12/26 08:57:01;;;;;;;12.93;9.00;;;;;;;0.94;87.85;97565.53;5109970;28;20196;-65
2020/12/26 08:59:28;;;;;;;11.60;8.50;;;;;;;0.92;87.91;97570.84;5119436;28;20242;-66
2020/12/26 09:01:54;;;;;;;12.97;8.30;;;;;;;1.01;86.69;97575.13;5106791;28;20236;-65
2020/12/26 09:04:20;;;;;;;12.33;8.67;;;;;;;0.93;87.55;97580.22;5092001;28;20169;-64
2020/12/26 09:06:46;;;;;;;12.10;8.40;;;;;;;1.21;85.84;97583.53;5090844;28;20183;-64
2020/12/26 09:09:18;;;;;;;14.00;8.00;;;;;;;1.16;86.17;97585.75;5095552;28;20187;-64
2020/12/26 09:11:45;;;;;;;12.70;8.57;;;;;;;1.21;85.48;97580.97;5100867;28;20256;-65
2020/12/26 09:14:29;;;;;;;11.93;8.30;;;;;;;1.23;85.02;97582.41;5103985;28;20693;-65
2020/12/26 09:17:01;;;;;;;12.70;8.80;;;;;;;1.36;84.60;97578.66;5108717;28;20267;-64
2020/12/26 09:19:40;;;;;;;10.33;7.30;;;;;;;1.32;84.11;97580.72;5101985;28;20249;-68
2020/12/26 09:22:10;;;;;;;11.80;7.00;;;;;;;1.19;84.66;97582.88;5100324;28;20704;-64
2020/12/26 09:24:35;;;;;;;11.37;7.60;;;;;;;1.17;84.89;97595.13;5090050;28;20601;-65
2020/12/26 09:27:01;;;;;;;10.27;7.37;;;;;;;1.27;85.22;97592.47;5091984;28;20259;-66
2020/12/26 09:29:26;;;;;;;12.03;7.40;;;;;;;1.24;85.42;97604.69;5102396;28;20171;-65
2020/12/26 09:31:52;;;;;;;11.07;8.13;;;;;;;1.37;84.54;97598.34;5103263;28;20610;-64
2020/12/26 09:34:26;;;;;;;15.23;8.03;;;;;;;1.40;84.82;97610.94;5107548;28;20296;-64
2020/12/26 09:37:06;;;;;;;13.23;8.00;;;;;;;1.35;85.50;97608.81;5102764;28;20216;-64
2020/12/26 09:39:32;;;;;;;10.90;8.00;;;;;;;1.63;84.72;97609.53;5103005;28;20209;-63
2020/12/26 09:41:57;;;;;;;12.87;7.67;;;;;;;1.60;84.64;97612.44;5101763;28;20618;-63
2020/12/26 09:44:23;;;;;;;9.73;6.97;;;;;;;1.76;84.57;97622.06;5096266;28;20173;-64
2020/12/26 09:46:56;;;;;;;8.53;6.97;;;;;;;1.82;83.59;97618.88;5102625;28;20268;-64
2020/12/26 09:49:21;;;;;;;10.37;7.07;;;;;;;1.97;83.75;97618.16;5106425;28;20754;-64
2020/12/26 09:51:47;;;;;;;12.63;7.03;;;;;;;2.05;82.54;97614.84;5105035;28;20223;-64
2020/12/26 09:54:12;;;;;;;10.90;6.80;;;;;;;2.06;82.99;97609.50;5098929;28;20566;-65
2020/12/26 09:56:38;;;;;;;8.07;6.57;;;;;;;1.99;82.75;97616.25;5108763;28;20208;-64
2020/12/26 09:59:04;;;;;;;8.97;6.67;;;;;;;2.19;81.65;97614.25;5105213;28;20260;-64
2020/12/26 10:01:30;;;;;;;9.67;6.70;;;;;;;2.35;81.23;97613.53;5095206;28;20290;-64
2020/12/26 10:03:56;;;;;;;8.10;6.57;;;;;;;2.47;80.74;97612.28;5105454;28;20723;-64
2020/12/26 10:06:21;;;;;;;10.87;6.87;;;;;;;2.54;80.54;97613.28;5107443;28;20258;-64
2020/12/26 10:08:48;;;;;;;9.17;6.10;;;;;;;2.60;80.35;97598.94;5101359;28;20179;-64
2020/12/26 10:11:16;;;;;;;10.43;6.17;;;;;;;2.62;79.39;97597.78;5098370;28;20177;-64
2020/12/26 10:13:43;;;;;;;9.60;5.53;;;;;;;2.73;78.73;97597.50;5107500;28;20295;-64
2020/12/26 10:16:09;;;;;;;9.73;6.03;;;;;;;2.79;78.04;97599.47;5101453;28;20179;-64
2020/12/26 10:18:35;;;;;;;7.10;5.63;;;;;;;2.73;77.89;97597.50;5098465;28;20172;-64
2020/12/26 10:21:05;;;;;;;7.57;5.73;;;;;;;2.77;78.70;97609.19;5104479;28;20176;-64
2020/12/26 10:23:30;;;;;;;6.23;5.47;;;;;;;2.83;77.52;97599.97;5104457;28;20282;-64
2020/12/26 10:26:03;;;;;;;6.70;5.63;;;;;;;2.90;77.93;97604.34;5103583;28;20656;-64
2020/12/26 10:28:29;;;;;;;5.93;4.97;;;;;;;3.05;77.78;97606.34;5063389;28;20194;-64
2020/12/26 10:30:55;;;;;;;6.27;5.20;;;;;;;3.17;76.30;97605.06;5104838;28;20701;-64
2020/12/26 10:33:20;;;;;;;5.63;4.80;;;;;;;3.13;76.62;97591.59;5103488;28;20731;-64
2020/12/26 10:35:46;;;;;;;6.03;5.00;;;;;;;3.15;74.96;97594.03;5098504;28;20708;-64
2020/12/26 10:38:11;;;;;;;5.37;4.83;;;;;;;3.17;74.50;97594.72;5101939;28;20177;-64
2020/12/26 10:40:37;;;;;;;7.07;4.90;;;;;;;3.17;75.28;97590.34;5107660;28;20219;-64
2020/12/26 10:43:02;;;;;;;5.87;4.80;;;;;;;3.19;75.05;97580.59;5100172;28;20204;-64
2020/12/26 10:45:28;;;;;;;7.73;4.60;;;;;;;3.28;75.09;97581.44;5099713;28;20177;-64
2020/12/26 10:47:53;;;;;;;6.30;4.40;;;;;;;3.33;74.25;97584.34;5108592;28;20271;-65
2020/12/26 10:50:19;;;;;;;8.37;5.13;;;;;;;3.38;73.15;97579.50;5092789;28;20176;-64
2020/12/26 10:52:44;;;;;;;7.17;4.90;;;;;;;3.47;73.28;97588.06;5106842;28;20199;-64
2020/12/26 10:55:16;;;;;;;5.07;4.57;;;;;;;3.37;72.38;97588.25;5098736;28;20237;-64
2020/12/26 10:57:43;;;;;;;5.83;4.30;;;;;;;3.34;71.08;97584.16;5103075;28;20176;-64
2020/12/26 11:00:12;;;;;;;5.60;4.63;;;;;;;3.39;73.41;97583.72;5084361;28;20188;-64
2020/12/26 11:02:38;;;;;;;5.27;4.77;;;;;;;3.47;72.76;97575.13;5116064;27;20226;-64
2020/12/26 11:05:09;;;;;;;6.47;4.67;;;;;;;3.43;72.35;97573.81;5118654;27;20184;-64
2020/12/26 11:07:35;;;;;;;5.43;4.53;;;;;;;3.51;71.36;97569.44;5119751;27;20217;-64
2020/12/26 11:10:01;;;;;;;4.53;4.13;;;;;;;3.55;71.44;97559.56;5118959;27;20582;-64
2020/12/26 11:12:26;;;;;;;4.90;3.97;;;;;;;3.68;71.36;97558.09;5113335;27;20210;-64
2020/12/26 11:14:52;;;;;;;5.07;4.40;;;;;;;3.57;72.20;97548.06;5113649;27;20699;-64
2020/12/26 11:17:17;;;;;;;6.50;4.70;;;;;;;3.58;72.89;97546.28;5093216;28;20195;-63
2020/12/26 11:19:43;;;;;;;7.50;5.30;;;;;;;3.57;72.99;97547.25;5128818;27;20187;-63
2020/12/26 11:22:09;;;;;;;6.17;5.13;;;;;;;3.45;73.43;97540.81;5117104;27;20252;-62
2020/12/26 11:24:34;;;;;;;6.60;4.77;;;;;;;3.50;74.01;97528.16;5123070;27;20179;-60
2020/12/26 11:27:00;;;;;;;6.60;5.00;;;;;;;3.43;75.30;97535.78;5125348;27;20262;-60
2020/12/26 11:29:25;;;;;;;5.73;4.70;;;;;;;3.46;74.59;97534.63;5126265;27;20709;-60
2020/12/26 11:31:51;;;;;;;6.20;5.20;;;;;;;3.43;74.99;97527.19;5127932;27;20571;-61
2020/12/26 11:34:17;;;;;;;6.27;5.20;;;;;;;3.17;75.50;97525.59;5118290;27;20256;-60